createdAt,value
2019-02-28T00:01:27.243Z,53.40
2019-02-28T00:03:57.963Z,53.70
2019-02-28T00:06:25.393Z,53.90
2019-02-28T00:08:53.833Z,54.40
2019-02-28T00:11:22.415Z,54.60
2019-02-28T00:13:52.310Z,54.80
2019-02-28T00:16:20.809Z,54.80
2019-02-28T00:18:49.814Z,54.90
2019-02-28T00:21:18.453Z,54.90
2019-02-28T00:23:46.397Z,54.90
2019-02-28T00:26:14.363Z,54.80
2019-02-28T00:28:42.270Z,54.80
2019-02-28T00:31:14.212Z,55.30
2019-02-28T00:33:40.906Z,55.40
2019-02-28T00:36:08.850Z,55.50
2019-02-28T00:38:37.203Z,55.50
2019-02-28T00:41:05.291Z,55.70
2019-02-28T00:43:33.206Z,55.90
2019-02-28T00:46:01.428Z,55.90
2019-02-28T00:48:29.357Z,56.00
2019-02-28T00:50:58.532Z,56.10
2019-02-28T00:53:26.938Z,56.20
2019-02-28T00:55:55.363Z,56.50
2019-02-28T00:58:23.255Z,56.70
2019-02-28T01:00:51.462Z,56.90
2019-02-28T01:03:19.828Z,56.70
2019-02-28T01:05:48.050Z,56.90
2019-02-28T01:08:19.183Z,57.10
2019-02-28T01:10:46.828Z,57.20
2019-02-28T01:13:15.105Z,57.50
2019-02-28T01:15:44.835Z,57.90
2019-02-28T01:18:13.290Z,57.30
2019-02-28T01:20:41.245Z,57.40
2019-02-28T01:23:09.186Z,57.60
2019-02-28T01:25:39.925Z,57.60
2019-02-28T01:28:06.945Z,57.60
2019-02-28T01:30:37.058Z,57.80
2019-02-28T01:33:04.670Z,58.30
2019-02-28T01:35:32.891Z,58.40
2019-02-28T01:38:01.376Z,58.40
2019-02-28T01:40:29.327Z,58.40
2019-02-28T01:42:57.703Z,58.50
2019-02-28T01:45:25.551Z,58.90
2019-02-28T01:47:53.508Z,58.90
2019-02-28T01:50:21.523Z,59.40
2019-02-28T01:52:49.695Z,59.60
2019-02-28T01:55:17.766Z,59.80
2019-02-28T01:57:46.072Z,59.90
2019-02-28T02:00:14.671Z,60.10
2019-02-28T02:02:42.933Z,60.20
2019-02-28T02:05:10.936Z,60.30
2019-02-28T02:07:39.520Z,60.20
2019-02-28T02:10:13.519Z,60.90
2019-02-28T02:12:41.885Z,60.40
2019-02-28T02:15:10.031Z,60.40
2019-02-28T02:17:38.155Z,60.30
2019-02-28T02:20:07.043Z,60.70
2019-02-28T02:22:36.637Z,61.10
2019-02-28T02:25:05.615Z,61.20
2019-02-28T02:27:35.159Z,61.40
2019-02-28T02:30:03.270Z,61.20
2019-02-28T02:32:37.076Z,61.20
2019-02-28T02:35:06.277Z,61.00
2019-02-28T02:37:31.425Z,61.00
2019-02-28T02:39:59.758Z,61.00
2019-02-28T02:42:27.642Z,61.00
2019-02-28T02:44:55.667Z,60.80
2019-02-28T02:47:24.057Z,60.80
2019-02-28T02:49:57.563Z,61.30
2019-02-28T02:52:25.852Z,61.10
2019-02-28T02:54:53.121Z,61.00
2019-02-28T02:57:21.550Z,61.10
2019-02-28T02:59:49.552Z,61.80
2019-02-28T03:02:17.900Z,62.40
2019-02-28T03:04:46.283Z,62.80
2019-02-28T03:07:22.991Z,62.80
2019-02-28T03:09:44.901Z,62.80
2019-02-28T03:12:12.729Z,62.60
2019-02-28T03:14:41.184Z,62.50
2019-02-28T03:17:11.495Z,62.20
2019-02-28T03:19:39.961Z,62.00
2019-02-28T03:22:08.382Z,62.10
2019-02-28T03:24:36.812Z,62.10
2019-02-28T03:27:04.998Z,62.30
2019-02-28T03:29:32.994Z,62.30
2019-02-28T03:32:01.342Z,63.20
2019-02-28T03:34:29.276Z,63.20
2019-02-28T03:36:57.837Z,62.10
2019-02-28T03:39:26.006Z,62.20
2019-02-28T03:41:54.535Z,62.60
2019-02-28T03:44:22.836Z,62.80
2019-02-28T03:46:50.811Z,62.80
2019-02-28T03:49:19.154Z,63.20
2019-02-28T03:51:47.570Z,63.70
2019-02-28T03:54:15.451Z,63.60
2019-02-28T03:56:51.360Z,64.00
2019-02-28T03:59:18.204Z,63.70
2019-02-28T04:01:45.475Z,63.50
2019-02-28T04:04:13.493Z,64.00
2019-02-28T04:06:41.648Z,64.90
2019-02-28T04:09:09.562Z,65.50
2019-02-28T04:11:37.373Z,66.50
2019-02-28T04:14:05.339Z,67.30
2019-02-28T04:16:33.275Z,67.40
2019-02-28T04:19:01.136Z,67.50
2019-02-28T04:21:29.098Z,67.70
2019-02-28T04:23:56.994Z,68.20
2019-02-28T04:26:25.045Z,68.40
2019-02-28T04:28:54.727Z,68.90
2019-02-28T04:31:22.806Z,68.70
2019-02-28T04:33:50.674Z,67.80
2019-02-28T04:36:18.663Z,67.60
2019-02-28T04:38:46.709Z,67.70
2019-02-28T04:41:14.809Z,68.60
2019-02-28T04:43:44.369Z,69.10
2019-02-28T04:46:12.816Z,68.50
2019-02-28T04:48:40.673Z,67.60
2019-02-28T04:51:08.554Z,67.40
2019-02-28T04:53:36.413Z,67.50
2019-02-28T04:56:04.530Z,67.80
2019-02-28T04:58:32.395Z,68.00
2019-02-28T05:01:00.306Z,68.00
2019-02-28T05:03:29.203Z,68.50
2019-02-28T05:05:57.669Z,68.70
2019-02-28T05:08:25.588Z,68.60
2019-02-28T05:10:55.949Z,68.80
2019-02-28T05:13:23.635Z,68.90
2019-02-28T05:15:51.588Z,69.20
2019-02-28T05:18:19.525Z,69.20
2019-02-28T05:20:47.417Z,69.30
2019-02-28T05:23:15.295Z,69.70
2019-02-28T05:25:43.214Z,70.20
2019-02-28T05:28:11.266Z,70.60
2019-02-28T05:30:39.179Z,70.90
2019-02-28T05:33:07.500Z,71.70
2019-02-28T05:35:35.627Z,72.00
2019-02-28T05:38:03.492Z,72.30
2019-02-28T05:40:31.306Z,73.00
2019-02-28T05:42:59.264Z,73.60
2019-02-28T05:45:27.202Z,75.10
2019-02-28T05:47:55.142Z,74.60
2019-02-28T05:50:23.130Z,74.80
2019-02-28T05:52:51.584Z,75.30
2019-02-28T05:55:24.584Z,75.40
2019-02-28T05:57:49.718Z,75.90
2019-02-28T06:00:18.845Z,76.60
2019-02-28T06:02:46.731Z,77.20
2019-02-28T06:05:14.731Z,77.70
2019-02-28T06:07:42.718Z,78.30
2019-02-28T06:10:10.892Z,78.40
2019-02-28T06:12:40.453Z,78.40
2019-02-28T06:15:08.871Z,78.40
2019-02-28T06:17:37.506Z,77.60
2019-02-28T06:20:05.986Z,77.30
2019-02-28T06:22:36.328Z,76.90
2019-02-28T06:25:04.668Z,77.00
2019-02-28T06:27:41.043Z,78.30
2019-02-28T06:30:02.442Z,78.60
2019-02-28T06:32:30.344Z,78.60
2019-02-28T06:34:59.834Z,77.50
2019-02-28T06:37:28.487Z,77.30
2019-02-28T06:39:58.651Z,76.80
2019-02-28T06:42:26.413Z,76.80
2019-02-28T06:44:54.319Z,76.30
2019-02-28T06:47:22.264Z,75.30
2019-02-28T06:49:50.240Z,75.10
2019-02-28T06:52:18.087Z,75.00
2019-02-28T06:54:46.025Z,74.50
2019-02-28T06:57:14.082Z,74.70
2019-02-28T06:59:42.276Z,74.70
2019-02-28T07:02:10.212Z,74.70
2019-02-28T07:04:38.182Z,74.90
2019-02-28T07:07:07.348Z,75.30
2019-02-28T07:09:36.452Z,76.00
2019-02-28T07:12:05.159Z,76.50
2019-02-28T07:14:49.348Z,77.10
2019-02-28T07:17:17.578Z,77.10
2019-02-28T07:19:45.513Z,77.20
2019-02-28T07:22:19.191Z,77.50
2019-02-28T07:24:43.236Z,77.80
2019-02-28T07:27:11.125Z,78.30
2019-02-28T07:29:39.104Z,79.00
2019-02-28T07:32:07.050Z,79.50
2019-02-28T07:34:35.419Z,80.00
2019-02-28T07:37:03.268Z,81.30
2019-02-28T07:39:31.186Z,82.50
2019-02-28T07:42:02.308Z,83.30
2019-02-28T07:44:28.811Z,84.10
2019-02-28T07:46:56.670Z,85.20
2019-02-28T07:49:25.834Z,86.70
2019-02-28T07:51:56.970Z,87.70
2019-02-28T07:54:24.058Z,88.50
2019-02-28T07:56:52.030Z,89.40
2019-02-28T07:59:20.459Z,89.80
2019-02-28T08:01:50.743Z,90.10
2019-02-28T08:04:19.188Z,89.90
2019-02-28T08:06:47.314Z,90.40
2019-02-28T08:09:23.115Z,91.00
2019-02-28T08:11:51.578Z,91.50
2019-02-28T08:14:30.363Z,91.80
2019-02-28T08:16:58.271Z,92.00
2019-02-28T08:19:27.232Z,91.90
2019-02-28T08:21:55.934Z,91.90
2019-02-28T08:24:23.894Z,92.00
2019-02-28T08:26:53.503Z,92.20
2019-02-28T08:29:21.723Z,92.40
2019-02-28T08:31:49.730Z,92.50
2019-02-28T08:34:20.579Z,92.80
2019-02-28T08:36:47.594Z,93.00
2019-02-28T08:39:16.771Z,93.10
2019-02-28T08:41:44.707Z,93.20
2019-02-28T08:44:12.743Z,93.40
2019-02-28T08:46:43.512Z,93.60
2019-02-28T08:49:10.675Z,93.60
2019-02-28T08:51:38.594Z,93.90
2019-02-28T08:54:06.459Z,94.10
2019-02-28T08:56:34.381Z,94.30
2019-02-28T08:59:11.387Z,94.70
2019-02-28T09:01:32.191Z,94.90
2019-02-28T09:04:05.068Z,95.00
2019-02-28T09:06:29.986Z,95.20
2019-02-28T09:08:59.901Z,95.10
2019-02-28T09:11:27.815Z,95.20
2019-02-28T09:13:55.889Z,95.40
2019-02-28T09:16:23.774Z,95.10
2019-02-28T09:18:51.683Z,95.20
2019-02-28T09:21:19.658Z,95.20
2019-02-28T09:23:47.598Z,95.30
2019-02-28T09:26:15.643Z,95.30
2019-02-28T09:28:44.456Z,95.30
2019-02-28T09:31:13.334Z,95.10
2019-02-28T09:33:41.282Z,95.30
2019-02-28T09:36:09.202Z,95.50
2019-02-28T09:38:37.157Z,95.70
2019-02-28T09:41:05.447Z,95.80
2019-02-28T09:43:33.430Z,95.80
2019-02-28T09:46:01.503Z,96.10
2019-02-28T09:48:30.677Z,96.40
2019-02-28T09:50:59.184Z,96.60
2019-02-28T09:53:27.215Z,97.30
2019-02-28T09:55:55.105Z,97.70
2019-02-28T09:58:22.971Z,98.00
2019-02-28T10:00:51.013Z,98.20
2019-02-28T10:03:19.582Z,98.60
2019-02-28T10:05:47.571Z,98.40
2019-02-28T10:08:15.803Z,98.30
2019-02-28T10:10:43.665Z,98.40
2019-02-28T10:13:14.584Z,98.10
2019-02-28T10:15:42.479Z,98.80
2019-02-28T10:18:10.464Z,99.30
2019-02-28T10:20:38.480Z,99.60
2019-02-28T10:23:06.347Z,99.90
2019-02-28T10:25:34.247Z,99.90
2019-02-28T10:28:02.894Z,99.90
2019-02-28T10:30:32.410Z,99.90
2019-02-28T10:33:01.176Z,99.90
2019-02-28T10:35:29.242Z,99.90
2019-02-28T10:37:58.387Z,99.90
2019-02-28T10:40:27.339Z,99.90
2019-02-28T10:42:55.622Z,99.90
2019-02-28T10:45:24.031Z,99.90
2019-02-28T10:47:52.023Z,99.90
2019-02-28T10:50:21.691Z,99.90
2019-02-28T10:52:50.072Z,99.90
2019-02-28T10:55:19.469Z,99.90
2019-02-28T10:57:48.404Z,99.90
2019-02-28T11:00:20.189Z,99.90
2019-02-28T11:02:50.469Z,99.90
2019-02-28T11:05:22.496Z,99.90
2019-02-28T11:07:50.785Z,99.90
2019-02-28T11:10:19.339Z,99.90
2019-02-28T11:12:47.365Z,99.90
2019-02-28T11:15:37.886Z,99.90
2019-02-28T11:18:09.774Z,99.90
2019-02-28T11:20:35.963Z,99.90
2019-02-28T11:23:04.592Z,99.90
2019-02-28T11:25:35.575Z,99.90
2019-02-28T11:28:02.598Z,99.90
2019-02-28T11:30:30.788Z,99.90
2019-02-28T11:33:02.979Z,99.90
2019-02-28T11:35:29.578Z,99.90
2019-02-28T11:37:57.753Z,99.90
2019-02-28T11:40:27.642Z,99.90
2019-02-28T11:42:55.651Z,99.90
2019-02-28T11:45:25.496Z,99.90
2019-02-28T11:47:54.850Z,99.90
2019-02-28T11:50:23.234Z,99.90
2019-02-28T11:52:51.337Z,99.90
2019-02-28T11:55:20.378Z,99.90
2019-02-28T11:57:49.465Z,99.90
2019-02-28T12:00:20.287Z,99.90
2019-02-28T12:02:53.245Z,99.90
2019-02-28T12:05:18.495Z,99.90
2019-02-28T12:07:46.583Z,99.90
2019-02-28T12:10:14.523Z,99.90
2019-02-28T12:12:44.717Z,99.90
2019-02-28T12:15:49.255Z,99.90
2019-02-28T12:18:16.590Z,99.90
2019-02-28T12:20:44.555Z,99.90
2019-02-28T12:23:12.552Z,99.90
2019-02-28T12:25:42.770Z,99.90
2019-02-28T12:28:10.175Z,99.90
2019-02-28T12:30:40.221Z,99.90
2019-02-28T12:33:08.155Z,99.90
2019-02-28T12:35:40.285Z,99.90
2019-02-28T12:38:06.279Z,99.90
2019-02-28T12:40:34.390Z,99.90
2019-02-28T12:43:05.290Z,99.90
2019-02-28T12:45:33.790Z,99.90
2019-02-28T12:48:01.768Z,99.90
2019-02-28T12:50:30.399Z,99.90
2019-02-28T12:52:58.423Z,99.90
2019-02-28T12:55:26.394Z,99.90
2019-02-28T12:57:54.855Z,99.90
2019-02-28T13:00:26.721Z,99.90
2019-02-28T13:02:54.790Z,99.90
2019-02-28T13:05:23.083Z,99.90
2019-02-28T13:07:51.047Z,99.90
2019-02-28T13:10:19.475Z,99.90
2019-02-28T13:12:48.813Z,99.90
2019-02-28T13:15:51.721Z,99.60
2019-02-28T13:18:18.608Z,99.20
2019-02-28T13:20:46.577Z,98.20
2019-02-28T13:23:16.975Z,97.40
2019-02-28T13:25:44.687Z,96.90
2019-02-28T13:28:12.641Z,96.40
2019-02-28T13:30:49.007Z,95.10
2019-02-28T13:33:11.022Z,94.20
2019-02-28T13:35:45.228Z,94.00
2019-02-28T13:38:17.497Z,93.90
2019-02-28T13:40:44.327Z,92.60
2019-02-28T13:43:10.845Z,92.40
2019-02-28T13:45:38.743Z,92.30
2019-02-28T13:48:06.753Z,92.00
2019-02-28T13:50:34.912Z,90.90
2019-02-28T13:53:17.028Z,90.60
2019-02-28T13:55:32.950Z,90.20
2019-02-28T13:58:01.467Z,89.30
2019-02-28T14:00:29.814Z,88.40
2019-02-28T14:02:59.572Z,88.20
2019-02-28T14:05:27.525Z,87.90
2019-02-28T14:07:55.661Z,86.10
2019-02-28T14:10:24.571Z,84.40
2019-02-28T14:12:53.286Z,82.80
2019-02-28T14:16:05.584Z,82.80
2019-02-28T14:18:32.314Z,82.70
2019-02-28T14:21:03.182Z,82.80
2019-02-28T14:23:30.139Z,81.30
2019-02-28T14:25:58.070Z,80.60
2019-02-28T14:28:26.251Z,80.20
2019-02-28T14:30:54.371Z,79.50
2019-02-28T14:33:24.127Z,79.80
2019-02-28T14:35:52.219Z,78.30
2019-02-28T14:38:20.132Z,77.50
2019-02-28T14:40:49.618Z,76.50
2019-02-28T14:43:19.613Z,75.80
2019-02-28T14:45:47.597Z,74.40
2019-02-28T14:48:15.722Z,74.90
2019-02-28T14:50:43.746Z,74.60
2019-02-28T14:53:14.430Z,74.60
2019-02-28T14:55:41.459Z,74.00
2019-02-28T14:58:09.369Z,74.10
2019-02-28T15:00:38.992Z,74.80
2019-02-28T15:03:07.679Z,74.10
2019-02-28T15:05:36.479Z,74.00
2019-02-28T15:08:04.513Z,71.90
2019-02-28T15:10:34.224Z,72.20
2019-02-28T15:13:04.664Z,73.60
2019-02-28T15:16:15.585Z,69.90
2019-02-28T15:18:44.344Z,69.10
2019-02-28T15:21:11.631Z,68.90
2019-02-28T15:23:39.599Z,68.60
2019-02-28T15:26:07.500Z,69.20
2019-02-28T15:28:35.563Z,69.40
2019-02-28T15:31:05.716Z,68.90
2019-02-28T15:33:33.418Z,69.90
2019-02-28T15:36:01.431Z,69.90
2019-02-28T15:38:29.628Z,69.50
2019-02-28T15:40:58.851Z,70.30
2019-02-28T15:43:27.340Z,69.60
2019-02-28T15:45:55.228Z,69.80
2019-02-28T15:48:23.312Z,69.60
2019-02-28T15:50:52.533Z,70.30
2019-02-28T15:53:20.562Z,70.30
2019-02-28T15:55:48.590Z,69.60
2019-02-28T15:58:16.749Z,69.90
2019-02-28T16:00:45.177Z,69.60
2019-02-28T16:03:13.534Z,70.30
2019-02-28T16:05:44.190Z,70.20
2019-02-28T16:08:12.372Z,70.40
2019-02-28T16:10:40.342Z,70.70
2019-02-28T16:13:08.206Z,70.80
2019-02-28T16:16:21.399Z,71.10
2019-02-28T16:18:47.325Z,71.50
2019-02-28T16:21:15.804Z,72.30
2019-02-28T16:23:43.694Z,71.70
2019-02-28T16:26:12.088Z,72.20
2019-02-28T16:28:42.604Z,72.70
2019-02-28T16:31:10.362Z,72.80
2019-02-28T16:33:38.298Z,72.70
2019-02-28T16:36:06.290Z,72.70
2019-02-28T16:38:34.207Z,72.70
2019-02-28T16:41:02.083Z,72.90
2019-02-28T16:43:30.122Z,72.70
2019-02-28T16:45:58.034Z,72.80
2019-02-28T16:48:25.946Z,73.10
2019-02-28T16:50:56.777Z,73.00
2019-02-28T16:53:23.863Z,73.30
2019-02-28T16:55:51.828Z,73.00
2019-02-28T16:58:21.830Z,73.20
2019-02-28T17:00:49.678Z,73.30
2019-02-28T17:03:17.710Z,73.70
2019-02-28T17:05:45.795Z,73.80
2019-02-28T17:08:15.599Z,74.00
2019-02-28T17:10:44.233Z,74.60
2019-02-28T17:13:20.399Z,74.60
2019-02-28T17:16:51.476Z,75.20
2019-02-28T17:19:19.463Z,75.30
2019-02-28T17:21:48.668Z,75.70
2019-02-28T17:24:17.683Z,76.00
2019-02-28T17:27:12.294Z,76.40
2019-02-28T17:30:06.383Z,76.70
2019-02-28T17:32:35.639Z,77.20
2019-02-28T17:35:04.360Z,77.30
2019-02-28T17:37:32.534Z,77.80
2019-02-28T17:40:01.153Z,78.30
2019-02-28T17:42:29.513Z,78.40
2019-02-28T17:45:30.415Z,78.90
2019-02-28T17:49:03.784Z,79.30
2019-02-28T17:52:12.511Z,79.70
2019-02-28T17:55:24.678Z,80.90
2019-02-28T17:58:36.889Z,80.50
2019-02-28T18:01:53.509Z,81.10
2019-02-28T18:05:05.510Z,81.60
2019-02-28T18:08:27.451Z,81.70
2019-02-28T18:11:30.965Z,81.90
2019-02-28T18:14:48.752Z,82.20
2019-02-28T18:17:48.183Z,82.40
2019-02-28T18:20:56.463Z,82.60
2019-02-28T18:24:07.130Z,82.80
2019-02-28T18:26:53.459Z,83.20
2019-02-28T18:30:09.228Z,83.50
2019-02-28T18:32:39.550Z,83.80
2019-02-28T18:35:08.103Z,84.20
2019-02-28T18:37:37.996Z,84.70
2019-02-28T18:40:06.579Z,85.20
2019-02-28T18:42:35.139Z,85.30
2019-02-28T18:45:04.510Z,85.60
2019-02-28T18:47:35.903Z,86.30
2019-02-28T18:50:03.867Z,86.50
2019-02-28T18:52:32.612Z,86.80
2019-02-28T18:55:06.175Z,86.90
2019-02-28T18:57:32.554Z,87.30
2019-02-28T19:00:03.363Z,87.40
2019-02-28T19:02:32.037Z,86.50
2019-02-28T19:05:00.814Z,86.50
2019-02-28T19:07:29.529Z,86.90
2019-02-28T19:09:58.325Z,87.50
2019-02-28T19:12:27.132Z,88.30
2019-02-28T19:15:27.587Z,88.90
2019-02-28T19:17:55.285Z,89.20
2019-02-28T19:20:24.543Z,89.70
2019-02-28T19:22:53.342Z,89.60
2019-02-28T19:25:22.220Z,90.00
2019-02-28T19:27:51.470Z,90.20
2019-02-28T19:30:20.191Z,90.30
2019-02-28T19:32:49.108Z,90.30
2019-02-28T19:35:18.225Z,90.40
2019-02-28T19:37:46.914Z,90.40
2019-02-28T19:40:15.559Z,90.70
2019-02-28T19:42:43.631Z,90.70
2019-02-28T19:45:13.212Z,90.70
2019-02-28T19:47:41.448Z,90.90
2019-02-28T19:50:10.323Z,91.20
2019-02-28T19:52:39.990Z,91.30
2019-02-28T19:55:10.199Z,91.30
2019-02-28T19:57:39.601Z,91.70
2019-02-28T20:00:10.593Z,91.90
2019-02-28T20:02:39.876Z,91.90
2019-02-28T20:05:08.139Z,91.90
2019-02-28T20:07:37.743Z,91.80
2019-02-28T20:10:07.991Z,91.80
2019-02-28T20:12:38.219Z,91.90
2019-02-28T20:15:38.918Z,92.10
2019-02-28T20:18:06.633Z,92.70
2019-02-28T20:20:35.343Z,92.60
2019-02-28T20:23:04.262Z,92.60
2019-02-28T20:25:33.158Z,92.70
2019-02-28T20:28:02.049Z,92.70
2019-02-28T20:30:30.659Z,92.90
2019-02-28T20:32:59.194Z,92.80
2019-02-28T20:35:27.431Z,93.10
2019-02-28T20:37:55.684Z,93.20
2019-02-28T20:40:24.351Z,93.40
2019-02-28T20:42:52.524Z,93.60
2019-02-28T20:45:20.807Z,93.90
2019-02-28T20:47:48.944Z,94.20
2019-02-28T20:50:25.766Z,94.40
2019-02-28T20:52:55.070Z,94.50
2019-02-28T20:55:24.066Z,94.70
2019-02-28T20:57:52.299Z,94.80
2019-02-28T21:00:24.224Z,94.70
2019-02-28T21:02:52.162Z,94.80
2019-02-28T21:05:20.395Z,95.10
2019-02-28T21:07:48.495Z,95.40
2019-02-28T21:10:16.539Z,95.60
2019-02-28T21:12:44.566Z,95.80
2019-02-28T21:15:58.974Z,96.00
2019-02-28T21:18:25.010Z,96.10
2019-02-28T21:20:53.038Z,96.20
2019-02-28T21:23:20.983Z,96.40
2019-02-28T21:26:13.426Z,96.30
2019-02-28T21:28:41.282Z,96.60
2019-02-28T21:31:09.346Z,96.80
2019-02-28T21:33:37.481Z,96.90
2019-02-28T21:36:05.620Z,96.70
2019-02-28T21:38:34.218Z,96.90
2019-02-28T21:41:02.939Z,97.00
2019-02-28T21:43:30.990Z,97.10
2019-02-28T21:45:58.953Z,97.20
2019-02-28T21:48:26.830Z,97.20
2019-02-28T21:50:55.475Z,97.30
2019-02-28T21:53:24.039Z,97.20
2019-02-28T21:55:52.667Z,97.20
2019-02-28T21:58:20.642Z,97.20
2019-02-28T22:00:49.268Z,97.20
2019-02-28T22:03:17.314Z,97.20
2019-02-28T22:05:46.219Z,97.30
2019-02-28T22:08:14.354Z,97.30
2019-02-28T22:10:43.514Z,97.10
2019-02-28T22:13:11.950Z,96.90
2019-02-28T22:16:23.366Z,97.00
2019-02-28T22:18:50.488Z,96.80
2019-02-28T22:21:18.587Z,96.80
2019-02-28T22:23:48.216Z,96.70
2019-02-28T22:26:17.252Z,96.70
2019-02-28T22:28:45.882Z,96.80
2019-02-28T22:31:51.591Z,96.90
2019-02-28T22:34:31.307Z,96.80
2019-02-28T22:36:59.258Z,96.80
2019-02-28T22:39:27.150Z,96.90
2019-02-28T22:41:55.110Z,97.10
2019-02-28T22:44:23.026Z,97.00
2019-02-28T22:46:51.117Z,97.00
2019-02-28T22:49:19.022Z,97.10
2019-02-28T22:51:47.222Z,97.20
2019-02-28T22:54:15.182Z,97.30
2019-02-28T22:56:43.250Z,97.20
2019-02-28T22:59:11.130Z,97.10
2019-02-28T23:01:39.235Z,97.20
2019-02-28T23:04:07.252Z,97.40
2019-02-28T23:06:35.118Z,97.40
2019-02-28T23:09:04.475Z,97.30
2019-02-28T23:11:32.555Z,97.40
2019-02-28T23:14:00.762Z,97.60
2019-02-28T23:16:28.867Z,97.70
2019-02-28T23:18:56.875Z,97.80
2019-02-28T23:21:24.957Z,97.90
2019-02-28T23:23:52.980Z,98.00
2019-02-28T23:26:25.411Z,97.60
2019-02-28T23:29:06.938Z,97.60
2019-02-28T23:32:06.726Z,97.80
2019-02-28T23:34:37.575Z,98.10
2019-02-28T23:37:05.470Z,98.40
2019-02-28T23:39:33.664Z,98.50
2019-02-28T23:42:01.720Z,98.70
2019-02-28T23:44:29.778Z,98.90
2019-02-28T23:46:57.711Z,99.00
2019-02-28T23:49:25.741Z,99.00
2019-02-28T23:51:53.955Z,99.10
2019-02-28T23:54:22.154Z,99.10
2019-02-28T23:56:50.208Z,99.30
2019-02-28T23:59:18.362Z,99.40
